createdAt,value
2023-05-01T00:05:16.948Z,8.50
2023-05-01T00:10:39.573Z,8.27
2023-05-01T00:16:01.354Z,7.93
2023-05-01T00:21:23.074Z,7.68
2023-05-01T00:26:45.064Z,7.82
2023-05-01T00:32:07.113Z,7.93
2023-05-01T00:37:28.844Z,8.35
2023-05-01T00:42:50.518Z,7.95
2023-05-01T00:48:12.410Z,6.95
2023-05-01T00:53:34.377Z,8.38
2023-05-01T00:58:56.491Z,7.75
2023-05-01T01:04:18.238Z,7.35
2023-05-01T01:10:18.130Z,7.18
2023-05-01T01:16:06.110Z,6.82
2023-05-01T01:21:33.600Z,6.45
2023-05-01T01:27:19.155Z,6.50
2023-05-01T01:33:24.916Z,6.28
2023-05-01T01:38:59.589Z,6.60
2023-05-01T01:44:37.244Z,6.60
2023-05-01T01:50:04.206Z,6.68
2023-05-01T01:55:30.346Z,6.97
2023-05-01T02:00:54.673Z,7.25
2023-05-01T02:06:17.587Z,6.70
2023-05-01T02:11:40.996Z,6.90
2023-05-01T02:17:04.084Z,6.93
2023-05-01T02:22:27.187Z,8.63
2023-05-01T02:28:01.800Z,7.20
2023-05-01T02:33:23.512Z,7.20
2023-05-01T02:38:47.134Z,7.80
2023-05-01T02:44:11.298Z,7.53
2023-05-01T02:49:34.162Z,7.25
2023-05-01T02:54:56.876Z,7.88
2023-05-01T03:00:19.628Z,7.93
2023-05-01T03:05:41.786Z,8.13
2023-05-01T03:11:07.836Z,7.78
2023-05-01T03:16:29.612Z,8.63
2023-05-01T03:21:51.345Z,8.27
2023-05-01T03:27:13.334Z,8.50
2023-05-01T03:32:35.050Z,8.82
2023-05-01T03:37:56.754Z,8.45
2023-05-01T03:43:18.482Z,8.27
2023-05-01T03:48:40.204Z,8.10
2023-05-01T03:54:02.597Z,7.45
2023-05-01T03:59:25.046Z,8.18
2023-05-01T04:04:46.776Z,8.20
2023-05-01T04:10:09.778Z,8.10
2023-05-01T04:15:31.505Z,7.68
2023-05-01T04:20:53.336Z,8.27
2023-05-01T04:26:15.312Z,7.55
2023-05-01T04:31:37.444Z,7.88
2023-05-01T04:36:59.286Z,7.82
2023-05-01T04:42:21.143Z,7.53
2023-05-01T04:47:42.856Z,7.88
2023-05-01T04:53:04.659Z,7.32
2023-05-01T04:58:26.428Z,7.13
2023-05-01T05:03:50.022Z,7.88
2023-05-01T05:09:12.271Z,7.22
2023-05-01T05:14:34.002Z,6.88
2023-05-01T05:19:55.947Z,7.60
2023-05-01T05:25:18.546Z,6.80
2023-05-01T05:30:40.224Z,6.75
2023-05-01T05:36:01.934Z,6.65
2023-05-01T05:41:23.681Z,6.90
2023-05-01T05:46:45.810Z,7.45
2023-05-01T05:52:07.524Z,7.57
2023-05-01T05:57:29.241Z,7.00
2023-05-01T06:02:51.465Z,6.97
2023-05-01T06:08:14.496Z,6.82
2023-05-01T06:13:36.381Z,7.03
2023-05-01T06:18:58.229Z,6.43
2023-05-01T06:24:19.949Z,6.93
2023-05-01T06:29:41.760Z,7.38
2023-05-01T06:35:03.597Z,6.80
2023-05-01T06:40:25.353Z,7.13
2023-05-01T06:45:47.090Z,6.97
2023-05-01T06:51:08.885Z,6.97
2023-05-01T06:56:32.219Z,6.75
2023-05-01T07:01:53.967Z,6.55
2023-05-01T07:07:15.862Z,7.47
2023-05-01T07:12:37.826Z,7.38
2023-05-01T07:18:01.142Z,8.10
2023-05-01T07:23:23.698Z,7.90
2023-05-01T07:28:45.472Z,7.93
2023-05-01T07:34:07.251Z,6.60
2023-05-01T07:39:28.975Z,6.53
2023-05-01T07:44:51.543Z,7.25
2023-05-01T07:50:13.275Z,6.80
2023-05-01T07:55:34.994Z,6.90
2023-05-01T08:00:56.787Z,7.22
2023-05-01T08:06:18.623Z,6.47
2023-05-01T08:11:40.413Z,6.88
2023-05-01T08:17:02.117Z,7.05
2023-05-01T08:22:23.938Z,6.68
2023-05-01T08:27:45.689Z,7.15
2023-05-01T08:33:07.795Z,7.25
2023-05-01T08:38:29.648Z,7.03
2023-05-01T08:43:51.610Z,6.45
2023-05-01T08:49:16.873Z,5.95
2023-05-01T08:54:42.786Z,6.25
2023-05-01T09:00:07.982Z,5.72
2023-05-01T09:05:31.969Z,5.70
2023-05-01T09:10:55.549Z,6.20
2023-05-01T09:16:17.370Z,6.50
2023-05-01T09:21:40.040Z,5.95
2023-05-01T09:27:01.770Z,6.78
2023-05-01T09:32:28.219Z,7.70
2023-05-01T09:37:50.430Z,7.47
2023-05-01T09:43:12.215Z,7.28
2023-05-01T09:48:35.655Z,6.80
2023-05-01T09:54:00.220Z,7.10
2023-05-01T09:59:21.919Z,6.93
2023-05-01T10:04:43.635Z,7.00
2023-05-01T10:10:19.010Z,7.50
2023-05-01T10:15:40.871Z,6.95
2023-05-01T10:21:04.176Z,6.65
2023-05-01T10:26:26.894Z,7.55
2023-05-01T10:31:48.644Z,7.20
2023-05-01T10:37:18.128Z,6.90
2023-05-01T10:43:18.519Z,6.38
2023-05-01T10:48:40.600Z,5.80
2023-05-01T10:54:14.246Z,6.90
2023-05-01T11:00:03.927Z,6.18
2023-05-01T11:06:00.952Z,6.95
2023-05-01T11:11:23.008Z,6.75
2023-05-01T11:16:46.811Z,7.07
2023-05-01T11:22:13.110Z,7.40
2023-05-01T11:27:35.449Z,6.15
2023-05-01T11:32:57.217Z,6.80
2023-05-01T11:38:19.108Z,7.35
2023-05-01T11:43:56.273Z,6.15
2023-05-01T11:49:27.413Z,6.05
2023-05-01T11:54:49.182Z,6.07
2023-05-01T12:00:12.065Z,6.35
2023-05-01T12:05:38.144Z,7.13
2023-05-01T12:11:00.628Z,6.85
2023-05-01T12:16:22.513Z,6.75
2023-05-01T12:21:44.338Z,6.80
2023-05-01T12:27:09.214Z,6.63
2023-05-01T12:32:32.275Z,5.50
2023-05-01T12:37:53.997Z,5.60
2023-05-01T12:43:16.659Z,5.65
2023-05-01T12:48:39.186Z,6.32
2023-05-01T12:54:00.996Z,6.55
2023-05-01T12:59:25.136Z,6.88
2023-05-01T13:04:49.259Z,6.20
2023-05-01T13:10:11.450Z,7.15
2023-05-01T13:15:33.311Z,6.50
2023-05-01T13:20:55.038Z,6.35
2023-05-01T13:26:17.010Z,5.75
2023-05-01T13:31:43.729Z,6.60
2023-05-01T13:37:13.234Z,6.32
2023-05-01T13:42:36.418Z,6.90
2023-05-01T13:47:59.273Z,6.00
2023-05-01T13:53:22.651Z,5.22
2023-05-01T13:58:44.758Z,6.18
2023-05-01T14:04:09.974Z,6.07
2023-05-01T14:09:35.629Z,5.93
2023-05-01T14:14:58.235Z,5.10
2023-05-01T14:20:20.157Z,4.95
2023-05-01T14:25:44.617Z,5.60
2023-05-01T14:31:07.925Z,5.75
2023-05-01T14:36:33.979Z,5.82
2023-05-01T14:41:58.194Z,5.15
2023-05-01T14:47:21.771Z,4.93
2023-05-01T14:52:43.882Z,4.47
2023-05-01T14:58:05.633Z,5.10
2023-05-01T15:03:27.557Z,5.20
2023-05-01T15:08:49.398Z,4.88
2023-05-01T15:14:11.123Z,4.63
2023-05-01T15:19:32.868Z,6.20
2023-05-01T15:24:54.565Z,6.70
2023-05-01T15:30:16.423Z,6.78
2023-05-01T15:35:38.563Z,6.47
2023-05-01T15:41:00.423Z,8.23
2023-05-01T15:46:23.462Z,8.30
2023-05-01T15:51:45.396Z,6.70
2023-05-01T15:57:08.545Z,6.95
2023-05-01T16:02:33.449Z,7.07
2023-05-01T16:08:00.613Z,6.05
2023-05-01T16:13:22.423Z,6.18
2023-05-01T16:18:44.172Z,6.18
2023-05-01T16:24:06.799Z,6.88
2023-05-01T16:29:28.869Z,7.20
2023-05-01T16:34:50.567Z,7.50
2023-05-01T16:40:16.678Z,6.55
2023-05-01T16:45:38.902Z,6.50
2023-05-01T16:51:01.124Z,6.15
2023-05-01T16:56:23.239Z,4.10
2023-05-01T17:01:45.096Z,3.20
2023-05-01T17:07:08.736Z,3.00
2023-05-01T17:12:30.467Z,2.33
2023-05-01T17:17:52.238Z,2.70
2023-05-01T17:23:14.116Z,3.05
2023-05-01T17:28:35.831Z,3.25
2023-05-01T17:33:57.600Z,3.55
2023-05-01T17:39:21.608Z,3.80
2023-05-01T17:44:43.343Z,4.35
2023-05-01T17:50:05.517Z,4.70
2023-05-01T17:55:27.871Z,5.03
2023-05-01T18:00:49.775Z,4.90
2023-05-01T18:06:13.189Z,5.03
2023-05-01T18:11:35.346Z,4.63
2023-05-01T18:16:57.159Z,4.78
2023-05-01T18:22:18.914Z,5.88
2023-05-01T18:27:41.711Z,5.72
2023-05-01T18:33:03.552Z,5.38
2023-05-01T18:38:27.564Z,5.80
2023-05-01T18:43:54.280Z,4.85
2023-05-01T18:49:23.305Z,4.72
2023-05-01T18:54:45.972Z,4.90
2023-05-01T19:00:09.090Z,4.93
2023-05-01T19:05:31.415Z,4.63
2023-05-01T19:10:53.408Z,5.47
2023-05-01T19:16:15.373Z,6.32
2023-05-01T19:21:37.125Z,6.53
2023-05-01T19:26:58.865Z,7.03
2023-05-01T19:32:21.067Z,7.07
2023-05-01T19:37:42.955Z,7.35
2023-05-01T19:43:04.643Z,7.45
2023-05-01T19:48:26.426Z,7.10
2023-05-01T19:53:48.312Z,6.65
2023-05-01T19:59:10.064Z,5.90
2023-05-01T20:04:31.870Z,6.30
2023-05-01T20:09:53.700Z,6.07
2023-05-01T20:15:15.680Z,6.18
2023-05-01T20:20:37.451Z,5.22
2023-05-01T20:25:59.698Z,5.53
2023-05-01T20:31:21.618Z,5.35
2023-05-01T20:36:43.512Z,4.60
2023-05-01T20:42:06.020Z,5.30
2023-05-01T20:47:27.885Z,5.35
2023-05-01T20:52:49.975Z,5.07
2023-05-01T20:58:11.783Z,4.68
2023-05-01T21:03:33.666Z,4.75
2023-05-01T21:08:55.715Z,5.80
2023-05-01T21:14:17.438Z,5.40
2023-05-01T21:19:44.083Z,5.00
2023-05-01T21:25:07.145Z,5.07
2023-05-01T21:30:36.426Z,4.63
2023-05-01T21:35:58.140Z,4.60
2023-05-01T21:41:19.846Z,4.50
2023-05-01T21:46:42.196Z,4.53
2023-05-01T21:52:04.004Z,5.13
2023-05-01T21:57:25.703Z,4.97
2023-05-01T22:02:49.794Z,4.75
2023-05-01T22:08:11.659Z,4.75
2023-05-01T22:13:33.601Z,4.40
2023-05-01T22:18:55.499Z,5.00
2023-05-01T22:24:17.260Z,4.55
2023-05-01T22:29:38.974Z,4.32
2023-05-01T22:35:00.911Z,4.07
2023-05-01T22:40:22.893Z,4.55
2023-05-01T22:45:44.896Z,4.82
2023-05-01T22:51:06.736Z,4.53
2023-05-01T22:56:28.620Z,4.93
2023-05-01T23:01:50.847Z,4.65
2023-05-01T23:07:15.665Z,4.20
2023-05-01T23:12:43.791Z,4.40
2023-05-01T23:18:06.551Z,4.35
2023-05-01T23:23:34.400Z,4.60
2023-05-01T23:28:56.266Z,4.78
2023-05-01T23:34:17.983Z,4.90
2023-05-01T23:39:39.683Z,4.32
2023-05-01T23:45:01.520Z,4.32
2023-05-01T23:50:25.235Z,4.40
2023-05-01T23:55:47.255Z,4.53
